Bampton, United Kingdom
Current Conditions -  °F | °C
As of 8:50 PM on Monday 24 Nov 2014 (Local Time) from EGVN Reporting Station
Moderate Fog Moderate Fog  
Wind Chill:   Ceiling: Unl
Heat Index:   Visibility: 2.1mi
Dew Point:   Wind: 0mph
Humidity: 100%   Direction: NA
Pressure: 30.33"   Gusts: NA
Location:  51.73°N, 1.55°W
Report Text: EGVN 242050Z 00000KT 3500 2000S VCFG FEW001 00/M00 Q1027 YLO2 TEMPO 0700 BCFG SCT001 RED
Loading
Personal Weather Stations






























Interactive Weather Map New forecast layout! Learn more

10-Day Weather Forecast

Advertisements
Track Severe Weather on mobile